Time;durP1;ratioP1;P1;durP2;ratioP2;P2;SDS_P1;SDS_P2;PMS_P1;PMS_P2;Temp;Humidity;BMP_temperature;BMP_pressure;BME280_temperature;BME280_humidity;BME280_pressure;Samples;Min_cycle;Max_cycle;Signal;HPM_P1;HPM_P2
2023/01/20 00:01:01;;;;;;;80.80;24.15;;;;;;;-0.40;100.00;101081.16;5047939;28;20035;-66
2023/01/20 00:03:26;;;;;;;73.80;23.25;;;;;;;-0.41;100.00;101078.59;5040069;28;20064;-66
2023/01/20 00:05:52;;;;;;;75.75;23.88;;;;;;;-0.44;100.00;101083.59;5047119;28;20459;-66
2023/01/20 00:08:17;;;;;;;78.30;23.73;;;;;;;-0.42;100.00;101084.50;5047455;28;20455;-66
2023/01/20 00:10:42;;;;;;;72.57;23.17;;;;;;;-0.41;100.00;101089.59;5039710;28;20546;-66
2023/01/20 00:13:08;;;;;;;73.22;22.42;;;;;;;-0.42;100.00;101093.00;5046651;28;20460;-66
2023/01/20 00:15:34;;;;;;;75.25;22.73;;;;;;;-0.40;100.00;101103.19;5037298;28;20025;-66
2023/01/20 00:17:59;;;;;;;68.70;21.73;;;;;;;-0.38;100.00;101098.16;5046100;28;20033;-66
2023/01/20 00:20:24;;;;;;;68.30;19.90;;;;;;;-0.34;100.00;101099.97;5046362;28;20675;-66
2023/01/20 00:22:50;;;;;;;70.00;21.60;;;;;;;-0.30;100.00;101110.25;5047611;28;20048;-67
2023/01/20 00:25:15;;;;;;;63.25;19.55;;;;;;;-0.26;100.00;101114.59;5046491;28;20036;-66
2023/01/20 00:27:40;;;;;;;62.95;19.63;;;;;;;-0.25;100.00;101105.28;5047506;28;20052;-66
2023/01/20 00:30:06;;;;;;;58.50;18.40;;;;;;;-0.27;100.00;101115.41;5047378;28;20511;-66
2023/01/20 00:32:36;;;;;;;60.88;18.75;;;;;;;-0.24;100.00;101112.94;5045846;28;20033;-66
2023/01/20 00:35:01;;;;;;;62.30;18.05;;;;;;;-0.25;100.00;101123.09;5046381;28;20033;-66
2023/01/20 00:37:27;;;;;;;63.20;18.92;;;;;;;-0.22;100.00;101118.09;5046071;28;20033;-66
2023/01/20 00:39:52;;;;;;;54.80;17.17;;;;;;;-0.25;100.00;101126.50;5045535;28;20037;-66
2023/01/20 00:42:17;;;;;;;51.65;15.40;;;;;;;-0.24;100.00;101125.69;5046580;28;20075;-66
2023/01/20 00:44:43;;;;;;;48.47;15.25;;;;;;;-0.22;100.00;101125.72;5046768;28;20652;-66
2023/01/20 00:47:08;;;;;;;56.47;15.68;;;;;;;-0.23;100.00;101126.56;5046061;28;20035;-66
2023/01/20 00:49:33;;;;;;;46.75;14.07;;;;;;;-0.21;100.00;101130.88;5037958;28;20052;-66
2023/01/20 00:51:59;;;;;;;49.22;15.20;;;;;;;-0.19;100.00;101134.28;5046723;28;20021;-67
2023/01/20 00:54:24;;;;;;;48.20;15.98;;;;;;;-0.19;100.00;101126.66;5046979;28;20060;-66
2023/01/20 00:56:49;;;;;;;55.88;16.35;;;;;;;-0.20;100.00;101131.69;5044718;28;20028;-66
2023/01/20 00:59:15;;;;;;;57.53;16.23;;;;;;;-0.19;100.00;101135.97;5045762;28;20108;-66
2023/01/20 01:01:40;;;;;;;51.40;16.98;;;;;;;-0.20;100.00;101137.66;5046635;28;20017;-66
2023/01/20 01:04:05;;;;;;;54.65;16.67;;;;;;;-0.20;100.00;101135.13;5047080;28;20021;-66
2023/01/20 01:06:30;;;;;;;59.15;17.65;;;;;;;-0.20;100.00;101142.75;5045936;28;20028;-66
2023/01/20 01:08:56;;;;;;;60.00;17.95;;;;;;;-0.20;100.00;101140.22;5046983;28;20037;-66
2023/01/20 01:11:21;;;;;;;59.28;16.65;;;;;;;-0.21;100.00;101135.97;5045746;28;20487;-66
2023/01/20 01:13:46;;;;;;;61.35;17.50;;;;;;;-0.22;100.00;101136.78;5045683;28;20017;-66
2023/01/20 01:16:14;;;;;;;64.60;17.50;;;;;;;-0.20;100.00;101144.44;5045365;28;20064;-66
2023/01/20 01:18:40;;;;;;;66.43;18.35;;;;;;;-0.19;100.00;101146.16;5045015;28;20503;-66
2023/01/20 01:21:07;;;;;;;64.07;18.33;;;;;;;-0.20;100.00;101141.88;5046096;28;20120;-66
2023/01/20 01:23:33;;;;;;;60.90;17.15;;;;;;;-0.17;100.00;101153.03;5046403;28;20037;-66
2023/01/20 01:25:58;;;;;;;69.10;19.60;;;;;;;-0.17;100.00;101153.03;5044030;28;20025;-66
2023/01/20 01:28:23;;;;;;;68.85;19.23;;;;;;;-0.17;100.00;101147.94;5045460;28;20050;-66
2023/01/20 01:30:49;;;;;;;71.25;19.35;;;;;;;-0.17;100.00;101159.81;5045826;28;20101;-66
2023/01/20 01:33:14;;;;;;;68.03;18.40;;;;;;;-0.18;100.00;101164.03;5045942;28;20539;-66
2023/01/20 01:35:39;;;;;;;72.90;18.80;;;;;;;-0.18;100.00;101164.03;5045633;28;20039;-66
2023/01/20 01:38:05;;;;;;;73.95;19.45;;;;;;;-0.19;100.00;101162.31;5045261;28;20044;-66
2023/01/20 01:40:30;;;;;;;72.38;19.98;;;;;;;-0.19;100.00;101162.31;5045451;28;20411;-66
2023/01/20 01:42:55;;;;;;;77.65;20.50;;;;;;;-0.19;100.00;101156.34;5045817;28;20028;-66
2023/01/20 01:45:28;;;;;;;78.80;22.80;;;;;;;-0.21;100.00;101160.56;5045348;28;20028;-66
2023/01/20 01:48:00;;;;;;;79.10;20.27;;;;;;;-0.24;100.00;101158.81;5044435;28;20032;-66
2023/01/20 01:50:31;;;;;;;90.28;22.48;;;;;;;-0.24;100.00;101171.53;5035970;28;20048;-66
2023/01/20 01:52:57;;;;;;;83.45;21.30;;;;;;;-0.22;100.00;101171.56;5044850;28;20442;-66
2023/01/20 01:55:27;;;;;;;76.72;21.85;;;;;;;-0.22;100.00;101175.00;5044629;28;20494;-66
2023/01/20 01:57:54;;;;;;;83.68;21.58;;;;;;;-0.24;100.00;101178.31;5045479;28;20029;-66
2023/01/20 02:00:20;;;;;;;74.63;20.05;;;;;;;-0.25;100.00;101177.44;5045994;28;20159;-66
2023/01/20 02:02:45;;;;;;;75.80;19.98;;;;;;;-0.26;100.00;101173.16;5044979;28;20033;-66
2023/01/20 02:05:13;;;;;;;81.80;20.48;;;;;;;-0.25;100.00;101164.72;5043945;28;20040;-66
2023/01/20 02:07:39;;;;;;;73.70;20.13;;;;;;;-0.25;100.00;101169.81;5044372;28;20087;-66
2023/01/20 02:10:05;;;;;;;75.50;19.67;;;;;;;-0.25;100.00;101164.72;5045727;28;20782;-66
2023/01/20 02:12:30;;;;;;;73.10;19.13;;;;;;;-0.24;100.00;101163.88;5045384;28;20479;-66
2023/01/20 02:15:01;;;;;;;75.25;18.95;;;;;;;-0.25;100.00;101172.34;5039176;28;20538;-66
2023/01/20 02:17:37;;;;;;;69.03;17.17;;;;;;;-0.24;100.00;101170.66;5044744;28;20029;-66
2023/01/20 02:20:28;;;;;;;73.35;19.02;;;;;;;-0.23;100.00;101159.66;5045537;28;20068;-66
2023/01/20 02:23:08;;;;;;;73.78;18.45;;;;;;;-0.21;100.00;101168.22;5044257;28;20028;-66
2023/01/20 02:26:01;;;;;;;77.50;18.55;;;;;;;-0.22;100.00;101164.81;5044899;28;20104;-66
2023/01/20 02:28:45;;;;;;;72.45;17.80;;;;;;;-0.22;100.00;101161.38;5044607;28;20086;-69
2023/01/20 02:31:27;;;;;;;70.55;17.20;;;;;;;-0.21;100.00;101163.97;5044814;28;20020;-69
2023/01/20 02:34:11;;;;;;;69.10;18.55;;;;;;;-0.23;100.00;101165.63;5045205;28;20030;-69
2023/01/20 02:36:50;;;;;;;71.47;17.30;;;;;;;-0.22;100.00;101164.81;5045571;28;20562;-69
2023/01/20 02:39:24;;;;;;;73.53;18.80;;;;;;;-0.25;100.00;101171.50;5045136;28;20514;-69
2023/01/20 02:42:06;;;;;;;81.47;20.20;;;;;;;-0.27;100.00;101174.00;5045884;28;20574;-69
2023/01/20 02:44:48;;;;;;;74.30;19.02;;;;;;;-0.25;100.00;101176.59;5040572;28;20082;-69
2023/01/20 02:47:22;;;;;;;78.25;18.95;;;;;;;-0.26;100.00;101177.41;5048277;28;20115;-69
2023/01/20 02:50:15;;;;;;;78.35;19.67;;;;;;;-0.24;100.00;101188.50;5048660;28;20495;-68
2023/01/20 03:13:28;;;;;;;66.82;17.48;;;;;;;-0.28;100.00;101187.56;5049070;28;20124;-66
2023/01/20 03:16:01;;;;;;;74.63;19.02;;;;;;;-0.24;100.00;101197.00;5047708;28;20129;-66
2023/01/20 03:18:32;;;;;;;69.22;16.95;;;;;;;-0.27;100.00;101186.72;5048062;28;20029;-66
2023/01/20 03:20:58;;;;;;;72.10;17.17;;;;;;;-0.25;100.00;101196.97;5048906;28;20521;-66
2023/01/20 03:23:27;;;;;;;66.93;16.58;;;;;;;-0.25;100.00;101191.88;5046915;28;20063;-66
2023/01/20 03:25:53;;;;;;;67.80;17.65;;;;;;;-0.26;100.00;101196.09;5042446;28;20059;-66
2023/01/20 03:28:19;;;;;;;67.13;17.25;;;;;;;-0.25;100.00;101199.50;5048773;28;20040;-66
2023/01/20 03:30:44;;;;;;;66.55;15.93;;;;;;;-0.23;100.00;101208.06;5048792;28;20029;-66
2023/01/20 03:33:12;;;;;;;69.30;16.65;;;;;;;-0.21;100.00;101216.59;5048248;28;20033;-66
2023/01/20 03:35:38;;;;;;;65.10;16.65;;;;;;;-0.24;100.00;101212.28;5047784;28;20017;-66
2023/01/20 03:38:04;;;;;;;65.22;17.13;;;;;;;-0.24;100.00;101211.41;5048500;28;20033;-66
2023/01/20 03:40:37;;;;;;;63.17;17.05;;;;;;;-0.26;100.00;101219.00;5048621;28;20021;-66
2023/01/20 03:43:13;;;;;;;67.35;15.50;;;;;;;-0.26;100.00;101219.00;5048126;28;20232;-66
2023/01/20 03:46:20;;;;;;;66.35;16.45;;;;;;;-0.25;100.00;101214.78;5046849;28;20032;-66
2023/01/20 03:48:52;;;;;;;65.88;16.00;;;;;;;-0.24;100.00;101222.47;4973861;28;20073;-66
2023/01/20 03:51:17;;;;;;;66.68;16.60;;;;;;;-0.23;100.00;101220.78;4979735;28;20030;-66
2023/01/20 03:53:53;;;;;;;65.47;15.77;;;;;;;-0.21;100.00;101221.69;5013302;28;20052;-66
2023/01/20 03:56:25;;;;;;;70.03;16.00;;;;;;;-0.22;100.00;101223.38;5047264;28;20725;-66
2023/01/20 03:58:54;;;;;;;58.10;15.60;;;;;;;-0.22;100.00;101225.94;5048122;28;20111;-66
2023/01/20 04:01:25;;;;;;;57.38;15.15;;;;;;;-0.22;100.00;101222.53;5048283;28;20412;-66
2023/01/20 04:03:53;;;;;;;59.30;15.57;;;;;;;-0.24;100.00;101225.03;5046760;28;20036;-66
2023/01/20 04:06:22;;;;;;;65.88;16.05;;;;;;;-0.23;100.00;101223.34;5048194;28;20032;-66
2023/01/20 04:08:57;;;;;;;64.18;16.58;;;;;;;-0.24;100.00;101226.69;5048106;28;20029;-66
2023/01/20 04:11:22;;;;;;;64.50;15.13;;;;;;;-0.25;100.00;101228.38;5046491;28;20033;-66
2023/01/20 04:13:49;;;;;;;63.13;16.40;;;;;;;-0.26;100.00;101229.19;5047483;28;20023;-66
2023/01/20 04:16:17;;;;;;;66.78;16.30;;;;;;;-0.27;100.00;101221.53;5039282;28;20068;-66
2023/01/20 04:18:46;;;;;;;61.58;16.15;;;;;;;-0.28;100.00;101223.22;5047020;28;20511;-65
2023/01/20 04:21:23;;;;;;;71.82;16.55;;;;;;;-0.27;100.00;101217.28;5046870;28;20568;-66
2023/01/20 04:23:56;;;;;;;64.47;17.33;;;;;;;-0.26;100.00;101224.09;5047351;28;20554;-66
2023/01/20 04:26:21;;;;;;;61.63;16.48;;;;;;;-0.27;100.00;101224.94;5047614;28;20103;-66
2023/01/20 04:28:47;;;;;;;63.97;15.05;;;;;;;-0.27;100.00;101224.09;5047859;28;20491;-66
2023/01/20 04:31:13;;;;;;;61.15;15.45;;;;;;;-0.25;100.00;101217.34;5044762;28;20464;-66
2023/01/20 04:33:39;;;;;;;65.03;15.93;;;;;;;-0.25;100.00;101220.75;5038920;28;20063;-66
2023/01/20 04:36:06;;;;;;;59.97;15.93;;;;;;;-0.25;100.00;101225.84;5047564;28;20028;-66
2023/01/20 04:38:31;;;;;;;66.18;16.10;;;;;;;-0.26;100.00;101221.56;5038426;28;20120;-66
2023/01/20 04:40:56;;;;;;;64.20;16.33;;;;;;;-0.26;100.00;101221.56;5046540;28;20021;-66
2023/01/20 04:43:22;;;;;;;67.90;16.65;;;;;;;-0.28;100.00;101218.13;5047113;28;20028;-65
2023/01/20 04:45:47;;;;;;;66.50;17.40;;;;;;;-0.32;100.00;101229.03;5047105;28;20372;-66
2023/01/20 04:48:12;;;;;;;66.75;16.80;;;;;;;-0.33;100.00;101227.31;5046489;28;20426;-66
2023/01/20 04:50:39;;;;;;;65.53;16.75;;;;;;;-0.33;100.00;101229.88;5045973;28;21177;-65
2023/01/20 04:53:05;;;;;;;69.38;16.85;;;;;;;-0.33;100.00;101229.88;5047558;28;20045;-66
2023/01/20 04:55:32;;;;;;;68.65;18.48;;;;;;;-0.32;100.00;101234.13;5047369;28;20032;-66
2023/01/20 04:57:57;;;;;;;71.15;17.17;;;;;;;-0.33;100.00;101229.00;5047045;28;20411;-66
2023/01/20 05:00:22;;;;;;;69.55;18.38;;;;;;;-0.31;100.00;101233.31;5046757;28;20518;-66
2023/01/20 05:02:48;;;;;;;69.43;17.08;;;;;;;-0.35;100.00;101239.16;5046344;28;20510;-66
2023/01/20 05:05:13;;;;;;;74.28;17.98;;;;;;;-0.35;100.00;101248.50;5046236;28;20027;-66
2023/01/20 05:07:39;;;;;;;77.38;18.52;;;;;;;-0.35;100.00;101245.94;5045701;28;20025;-66
2023/01/20 05:10:05;;;;;;;70.45;17.30;;;;;;;-0.34;100.00;101240.88;5046790;28;20024;-66
2023/01/20 05:12:30;;;;;;;67.70;17.30;;;;;;;-0.38;100.00;101238.22;5044899;28;20025;-66
2023/01/20 05:14:55;;;;;;;67.50;18.23;;;;;;;-0.42;100.00;101243.22;5046739;28;20025;-66
2023/01/20 05:17:21;;;;;;;69.32;17.77;;;;;;;-0.46;100.00;101240.53;5044662;28;20102;-66
2023/01/20 05:19:46;;;;;;;64.32;17.17;;;;;;;-0.45;100.00;101248.22;5046468;28;20035;-66
2023/01/20 05:22:11;;;;;;;69.40;17.90;;;;;;;-0.44;100.00;101260.16;5045668;28;20074;-66
2023/01/20 05:24:37;;;;;;;64.93;17.25;;;;;;;-0.44;100.00;101261.81;5041851;28;20174;-66
2023/01/20 05:27:02;;;;;;;71.35;18.17;;;;;;;-0.45;100.00;101260.09;5046276;28;20071;-66
2023/01/20 05:29:28;;;;;;;69.53;17.17;;;;;;;-0.45;100.00;101260.09;5040288;28;20033;-66
2023/01/20 05:31:53;;;;;;;69.93;18.27;;;;;;;-0.49;100.00;101248.97;5040665;28;20081;-65
2023/01/20 05:34:19;;;;;;;59.10;15.65;;;;;;;-0.48;100.00;101253.22;5039962;28;20116;-66
2023/01/20 05:36:44;;;;;;;67.82;18.67;;;;;;;-0.52;100.00;101255.66;5040995;28;20052;-66
2023/01/20 05:39:10;;;;;;;69.22;17.10;;;;;;;-0.53;100.00;101254.78;5045761;28;20391;-66
2023/01/20 05:41:35;;;;;;;65.68;17.75;;;;;;;-0.52;100.00;101248.00;5044947;28;20108;-66
2023/01/20 05:44:00;;;;;;;68.32;17.67;;;;;;;-0.49;100.00;101248.97;5045694;28;20203;-66
2023/01/20 05:46:25;;;;;;;67.90;17.48;;;;;;;-0.48;100.00;101247.31;5045882;28;20062;-66
2023/01/20 05:48:51;;;;;;;72.35;17.08;;;;;;;-0.53;100.00;101253.91;5044747;28;20102;-65
2023/01/20 05:51:16;;;;;;;65.85;17.13;;;;;;;-0.53;100.00;101257.34;5044742;28;20036;-66
2023/01/20 05:53:41;;;;;;;68.13;17.10;;;;;;;-0.51;100.00;101267.56;5045796;28;20025;-66
2023/01/20 05:56:07;;;;;;;65.72;18.10;;;;;;;-0.55;100.00;101261.53;5045577;28;20033;-66
2023/01/20 05:58:47;;;;;;;67.65;17.50;;;;;;;-0.55;100.00;101255.59;5007146;28;20053;-66
2023/01/20 06:01:13;;;;;;;70.03;17.27;;;;;;;-0.53;100.00;101259.88;5045390;28;20120;-66
2023/01/20 06:03:38;;;;;;;68.25;16.55;;;;;;;-0.51;100.00;101267.56;5046044;28;20036;-66
2023/01/20 06:06:06;;;;;;;71.35;17.17;;;;;;;-0.49;100.00;101273.56;5044978;28;20502;-66
2023/01/20 06:08:32;;;;;;;71.63;18.27;;;;;;;-0.47;100.00;101270.22;5044806;28;20028;-66
2023/01/20 06:10:58;;;;;;;75.25;19.40;;;;;;;-0.48;100.00;101267.66;5043785;28;20116;-66
2023/01/20 06:13:23;;;;;;;72.53;17.23;;;;;;;-0.47;100.00;101269.38;5045358;28;20116;-66
2023/01/20 06:15:53;;;;;;;68.50;16.95;;;;;;;-0.48;100.00;101283.78;5044383;28;20032;-66
2023/01/20 06:18:19;;;;;;;71.10;17.52;;;;;;;-0.47;100.00;101272.78;5043844;28;20025;-66
2023/01/20 06:20:45;;;;;;;70.22;17.38;;;;;;;-0.46;100.00;101277.06;5045309;28;20387;-66
2023/01/20 06:23:10;;;;;;;66.68;17.00;;;;;;;-0.44;100.00;101277.97;5041928;28;20025;-66
2023/01/20 06:25:36;;;;;;;67.75;16.83;;;;;;;-0.41;100.00;101279.75;5045128;28;20064;-66
2023/01/20 06:28:01;;;;;;;70.22;17.63;;;;;;;-0.41;100.00;101293.31;5045090;28;20391;-66
2023/01/20 06:30:27;;;;;;;71.80;17.73;;;;;;;-0.39;100.00;101290.81;5042892;28;20028;-66
2023/01/20 06:32:53;;;;;;;67.82;17.30;;;;;;;-0.38;100.00;101286.59;5044080;28;20043;-67
2023/01/20 06:35:19;;;;;;;64.65;16.60;;;;;;;-0.37;100.00;101290.88;5036555;28;20068;-66
2023/01/20 06:37:44;;;;;;;70.07;16.58;;;;;;;-0.36;100.00;101293.47;5044958;28;20061;-66
2023/01/20 06:40:10;;;;;;;63.55;15.63;;;;;;;-0.35;100.00;101285.00;5040927;28;20037;-66
2023/01/20 06:42:35;;;;;;;69.68;17.30;;;;;;;-0.35;100.00;101284.16;5041083;28;20037;-66
2023/01/20 06:45:01;;;;;;;69.97;16.67;;;;;;;-0.34;100.00;101286.69;5040678;28;20673;-66
2023/01/20 06:47:26;;;;;;;66.63;16.35;;;;;;;-0.32;100.00;101284.22;5041377;28;20025;-66
2023/01/20 06:49:51;;;;;;;59.50;15.73;;;;;;;-0.32;100.00;101284.22;5044929;28;20073;-66
2023/01/20 06:52:16;;;;;;;62.65;15.25;;;;;;;-0.31;100.00;101275.75;5039832;28;20114;-66
2023/01/20 06:54:42;;;;;;;66.45;17.55;;;;;;;-0.28;100.00;101286.03;5043538;28;20086;-66
2023/01/20 06:57:07;;;;;;;64.20;15.43;;;;;;;-0.27;100.00;101280.13;5041922;28;20522;-66
2023/01/20 06:59:32;;;;;;;66.85;16.73;;;;;;;-0.26;100.00;101284.38;5044893;28;20025;-66
2023/01/20 07:01:58;;;;;;;71.85;16.50;;;;;;;-0.26;100.00;101284.38;5043675;28;20025;-66
2023/01/20 07:04:23;;;;;;;59.33;15.65;;;;;;;-0.25;100.00;101288.66;5045137;28;20145;-66
2023/01/20 07:06:48;;;;;;;63.50;15.73;;;;;;;-0.24;100.00;101288.69;5044909;28;20112;-66
2023/01/20 07:09:14;;;;;;;62.90;16.95;;;;;;;-0.22;100.00;101284.53;5044793;28;20039;-66
2023/01/20 07:11:39;;;;;;;65.72;15.20;;;;;;;-0.22;100.00;101289.59;5045291;28;20033;-66
2023/01/20 07:14:06;;;;;;;67.78;16.20;;;;;;;-0.21;100.00;101288.78;5044535;28;20033;-66
2023/01/20 07:16:31;;;;;;;61.30;15.73;;;;;;;-0.19;100.00;101302.41;5042802;28;20108;-66
2023/01/20 07:18:57;;;;;;;67.18;16.20;;;;;;;-0.18;100.00;101301.59;5044601;28;20329;-66
2023/01/20 07:21:22;;;;;;;67.18;16.80;;;;;;;-0.17;100.00;101303.31;5043046;28;20446;-66
2023/01/20 07:23:48;;;;;;;65.50;16.10;;;;;;;-0.15;100.00;101303.38;5045106;28;20029;-66
2023/01/20 07:26:16;;;;;;;65.40;16.02;;;;;;;-0.13;100.00;101312.75;5045207;28;20098;-66
2023/01/20 07:28:42;;;;;;;68.65;16.02;;;;;;;-0.12;100.00;101317.03;5044966;28;20048;-66
2023/01/20 07:31:11;;;;;;;62.38;15.93;;;;;;;-0.09;100.00;101322.22;5042977;28;20093;-66
2023/01/20 07:33:37;;;;;;;62.90;16.98;;;;;;;-0.08;100.00;101318.88;5046621;28;21058;-66
2023/01/20 07:36:03;;;;;;;69.07;17.10;;;;;;;-0.07;100.00;101319.72;5045217;28;20075;-66
2023/01/20 07:38:28;;;;;;;69.68;17.13;;;;;;;-0.06;100.00;101314.66;5046432;28;20041;-67
2023/01/20 07:41:01;;;;;;;70.32;17.77;;;;;;;-0.01;100.00;101315.66;5047081;28;20029;-66
2023/01/20 07:43:27;;;;;;;69.57;17.60;;;;;;;0.00;100.00;101314.81;5046268;28;20037;-66
2023/01/20 07:45:54;;;;;;;68.47;17.10;;;;;;;0.03;100.00;101318.28;5048127;28;20090;-66
2023/01/20 07:48:20;;;;;;;64.82;16.80;;;;;;;0.02;100.00;101319.09;5046491;28;20143;-66
2023/01/20 07:50:45;;;;;;;68.75;16.27;;;;;;;0.04;100.00;101328.50;5048597;28;20139;-66
2023/01/20 07:53:10;;;;;;;68.43;17.50;;;;;;;0.06;100.00;101338.75;5048466;28;20276;-66
2023/01/20 07:55:35;;;;;;;60.78;16.02;;;;;;;0.04;100.00;101331.06;5047662;28;20116;-66
2023/01/20 07:58:01;;;;;;;61.08;17.27;;;;;;;0.04;100.00;101332.75;5046432;28;20430;-66
2023/01/20 08:00:26;;;;;;;64.63;17.75;;;;;;;-0.01;100.00;101325.84;5048079;28;20525;-66
2023/01/20 08:02:52;;;;;;;57.65;15.75;;;;;;;-0.05;100.00;101331.66;5047086;28;20501;-66
2023/01/20 08:05:17;;;;;;;60.30;15.57;;;;;;;-0.04;100.00;101338.50;5048513;28;20044;-67
2023/01/20 08:07:42;;;;;;;62.08;15.65;;;;;;;-0.04;100.00;101342.72;5047440;28;20025;-66
2023/01/20 08:10:08;;;;;;;63.90;16.17;;;;;;;-0.03;100.00;101341.91;5047771;28;20036;-67
2023/01/20 08:12:33;;;;;;;58.95;16.95;;;;;;;-0.04;100.00;101341.03;5046936;28;20052;-66
2023/01/20 08:14:59;;;;;;;60.63;16.70;;;;;;;-0.02;100.00;101338.53;5048072;28;20144;-67
2023/01/20 08:17:24;;;;;;;66.78;17.85;;;;;;;0.00;100.00;101345.38;5046058;28;20476;-67
2023/01/20 08:19:49;;;;;;;62.88;17.88;;;;;;;0.02;100.00;101339.47;5046597;28;20499;-67
2023/01/20 08:22:15;;;;;;;70.78;17.67;;;;;;;0.03;100.00;101342.06;5046960;28;20029;-67
2023/01/20 08:24:41;;;;;;;64.85;16.65;;;;;;;0.04;100.00;101337.84;5048435;28;20017;-67
2023/01/20 08:27:06;;;;;;;66.18;16.60;;;;;;;-0.01;100.00;101333.50;5048054;28;20078;-67
2023/01/20 08:29:32;;;;;;;67.07;17.15;;;;;;;0.02;100.00;101332.69;5046549;28;20123;-67
2023/01/20 08:32:00;;;;;;;69.22;16.73;;;;;;;0.03;100.00;101346.31;5047453;28;20398;-67
2023/01/20 08:34:27;;;;;;;64.18;16.88;;;;;;;0.05;100.00;101344.66;5047755;28;20040;-67
2023/01/20 08:36:53;;;;;;;62.55;16.92;;;;;;;0.06;100.00;101349.81;5046849;28;20418;-67
2023/01/20 08:39:19;;;;;;;63.38;16.88;;;;;;;0.08;100.00;101347.28;5046916;28;20299;-67
2023/01/20 08:41:46;;;;;;;68.70;17.17;;;;;;;0.11;100.00;101352.47;5045824;28;20032;-67
2023/01/20 08:44:11;;;;;;;67.07;16.90;;;;;;;0.12;100.00;101344.88;5047364;28;20037;-67
2023/01/20 08:46:38;;;;;;;63.30;16.95;;;;;;;0.13;100.00;101354.25;5039359;28;20021;-67
2023/01/20 08:49:09;;;;;;;65.47;16.35;;;;;;;0.16;100.00;101361.09;5045387;28;20067;-67
2023/01/20 08:51:34;;;;;;;64.22;16.75;;;;;;;0.16;100.00;101359.41;5045455;28;20407;-67
2023/01/20 08:54:00;;;;;;;64.43;15.75;;;;;;;0.15;100.00;101367.00;5047055;28;20498;-67
2023/01/20 08:56:26;;;;;;;59.08;16.00;;;;;;;0.13;100.00;101361.91;5046773;28;20037;-66
2023/01/20 08:58:52;;;;;;;64.95;15.98;;;;;;;0.11;100.00;101361.00;5046399;28;20544;-67
2023/01/20 09:01:24;;;;;;;63.88;17.02;;;;;;;0.09;100.00;101371.94;5045508;28;20467;-67
2023/01/20 09:03:50;;;;;;;57.90;15.52;;;;;;;0.08;100.00;101367.66;5046877;28;20029;-67
2023/01/20 09:06:15;;;;;;;54.20;14.60;;;;;;;0.07;100.00;101364.25;5045917;28;20073;-66
2023/01/20 09:08:41;;;;;;;53.35;14.48;;;;;;;0.07;100.00;101368.53;5046335;28;20060;-67
2023/01/20 09:11:12;;;;;;;48.33;13.82;;;;;;;0.07;100.00;101368.53;5046415;28;20485;-67
2023/01/20 09:13:38;;;;;;;51.78;14.35;;;;;;;0.05;100.00;101373.56;5046169;28;20040;-67
2023/01/20 09:16:04;;;;;;;55.88;14.60;;;;;;;0.06;100.00;101375.31;5044978;28;20021;-67
2023/01/20 09:18:33;;;;;;;54.95;14.75;;;;;;;0.07;100.00;101374.44;5045283;28;20052;-67
2023/01/20 09:21:00;;;;;;;53.42;14.82;;;;;;;0.08;100.00;101371.09;5037178;28;20039;-67
2023/01/20 09:23:27;;;;;;;52.22;14.80;;;;;;;0.06;100.00;101366.78;5046839;28;20033;-66
2023/01/20 09:25:52;;;;;;;50.58;14.38;;;;;;;0.07;100.00;101368.53;5046687;28;20036;-66
2023/01/20 09:28:17;;;;;;;53.35;14.95;;;;;;;0.07;100.00;101371.06;5045156;28;20037;-67
2023/01/20 09:30:43;;;;;;;50.20;15.00;;;;;;;0.09;100.00;101364.31;5045965;28;20037;-67
2023/01/20 09:33:10;;;;;;;51.00;14.38;;;;;;;0.04;100.00;101365.88;5046594;28;20025;-67
2023/01/20 09:35:35;;;;;;;50.70;14.38;;;;;;;-0.01;100.00;101366.63;5044946;28;20071;-67
2023/01/20 09:44:18;;;;;;;57.10;15.20;;;;;;;0.13;100.00;101366.13;5042904;28;20310;-67
2023/01/20 09:47:19;;;;;;;53.90;14.05;;;;;;;0.20;100.00;101361.25;5040109;28;20032;-67
2023/01/20 09:53:01;;;;;;;52.22;14.38;;;;;;;0.32;100.00;101350.50;5045190;28;20718;-67
2023/01/20 09:55:37;;;;;;;48.83;13.77;;;;;;;0.38;100.00;101363.41;5045952;28;20024;-67
2023/01/20 09:58:17;;;;;;;48.03;13.70;;;;;;;0.43;100.00;101364.38;5040745;28;20116;-67
2023/01/20 10:00:47;;;;;;;46.17;14.02;;;;;;;0.43;100.00;101359.28;5043231;28;20056;-67
2023/01/20 10:03:36;;;;;;;47.53;13.27;;;;;;;0.46;100.00;101355.94;5044875;28;20078;-66
2023/01/20 10:06:07;;;;;;;52.40;15.40;;;;;;;0.46;100.00;101369.56;5043910;28;20033;-67
2023/01/20 10:08:43;;;;;;;49.63;14.55;;;;;;;0.48;100.00;101367.88;5046009;28;20162;-67
2023/01/20 10:11:13;;;;;;;49.08;14.55;;;;;;;0.49;100.00;101369.63;5045900;28;20485;-67
2023/01/20 10:14:06;;;;;;;44.35;12.98;;;;;;;0.51;100.00;101375.63;5045524;28;20033;-66
2023/01/20 10:16:41;;;;;;;48.78;14.32;;;;;;;0.50;100.00;101368.81;5033164;28;20062;-66
2023/01/20 10:19:15;;;;;;;47.17;14.38;;;;;;;0.50;100.00;101373.91;5042914;28;20025;-66
2023/01/20 10:21:49;;;;;;;44.85;13.27;;;;;;;0.50;100.00;101379.00;5044053;28;20090;-67
2023/01/20 10:24:30;;;;;;;44.33;13.50;;;;;;;0.49;100.00;101374.72;5044587;28;20056;-66
2023/01/20 10:27:03;;;;;;;46.97;13.63;;;;;;;0.52;100.00;101377.38;5044453;28;20858;-66
2023/01/20 10:29:35;;;;;;;43.17;13.27;;;;;;;0.54;100.00;101387.63;5044654;28;20037;-66
2023/01/20 10:32:21;;;;;;;43.28;14.50;;;;;;;0.55;100.00;101387.63;5044779;28;20195;-67
2023/01/20 10:34:52;;;;;;;44.70;13.18;;;;;;;0.56;100.00;101391.91;5024406;28;20051;-67
2023/01/20 10:37:18;;;;;;;40.70;12.60;;;;;;;0.56;100.00;101386.81;5044175;28;20293;-67
2023/01/20 10:39:51;;;;;;;42.75;13.52;;;;;;;0.56;100.00;101391.03;5037500;28;20031;-67
2023/01/20 10:42:18;;;;;;;42.13;13.23;;;;;;;0.56;100.00;101383.38;5042957;28;20052;-67
2023/01/20 10:44:45;;;;;;;42.55;12.93;;;;;;;0.56;100.00;101383.38;5044569;28;20487;-67
2023/01/20 10:47:28;;;;;;;42.45;13.68;;;;;;;0.57;100.00;101388.53;5044717;28;20032;-67
2023/01/20 10:50:21;;;;;;;42.22;13.25;;;;;;;0.61;100.00;101382.72;5044702;28;20686;-67
2023/01/20 10:53:21;;;;;;;39.38;12.18;;;;;;;0.63;100.00;101381.03;5037257;28;20533;-67
2023/01/20 10:56:02;;;;;;;40.78;13.10;;;;;;;0.65;100.00;101384.50;5043515;28;20037;-67
2023/01/20 10:58:36;;;;;;;36.78;12.25;;;;;;;0.67;100.00;101387.97;5044367;28;20031;-67
2023/01/20 11:01:04;;;;;;;37.42;12.35;;;;;;;0.70;100.00;101392.25;5044751;28;20099;-67
2023/01/20 11:03:38;;;;;;;39.53;12.27;;;;;;;0.72;100.00;101394.03;5039511;28;20108;-67
2023/01/20 11:06:05;;;;;;;40.33;12.98;;;;;;;0.73;100.00;101394.91;5046607;28;20445;-67
2023/01/20 11:08:30;;;;;;;40.45;12.35;;;;;;;0.74;100.00;101397.50;5047187;28;20025;-67
2023/01/20 11:10:59;;;;;;;40.78;13.30;;;;;;;0.76;100.00;101405.16;5049016;28;20027;-67
2023/01/20 11:13:25;;;;;;;42.47;12.57;;;;;;;0.75;100.00;101400.91;5048155;28;20033;-67
2023/01/20 11:15:55;;;;;;;43.90;13.65;;;;;;;0.76;100.00;101402.59;5048055;28;20047;-67
2023/01/20 11:18:31;;;;;;;40.65;13.82;;;;;;;0.71;100.00;101401.63;5047715;28;20032;-67
2023/01/20 11:21:00;;;;;;;38.58;13.75;;;;;;;0.66;100.00;101405.78;5048816;28;20087;-67
2023/01/20 11:23:33;;;;;;;37.63;13.07;;;;;;;0.64;100.00;101407.41;5048204;28;20043;-67
2023/01/20 11:26:01;;;;;;;38.80;13.73;;;;;;;0.66;100.00;101408.31;5043885;28;20033;-67
2023/01/20 11:28:35;;;;;;;39.15;12.70;;;;;;;0.68;100.00;101404.13;5048726;28;20063;-67
2023/01/20 11:31:02;;;;;;;36.03;12.88;;;;;;;0.68;100.00;101409.25;5048164;28;20394;-67
2023/01/20 11:33:27;;;;;;;42.10;13.52;;;;;;;0.70;100.00;101403.31;5038609;28;20037;-67
2023/01/20 11:36:01;;;;;;;42.60;14.15;;;;;;;0.75;100.00;101411.94;5048709;28;20392;-67
2023/01/20 11:38:30;;;;;;;41.65;13.25;;;;;;;0.84;100.00;101402.81;5044789;28;20036;-67
2023/01/20 11:40:56;;;;;;;44.42;13.90;;;;;;;0.91;100.00;101405.53;5046608;28;20490;-67